Time;durP1;ratioP1;P1;durP2;ratioP2;P2;SDS_P1;SDS_P2;PMS_P1;PMS_P2;Temp;Humidity;BMP_temperature;BMP_pressure;BME280_temperature;BME280_humidity;BME280_pressure;Samples;Min_cycle;Max_cycle;Signal;HPM_P1;HPM_P2
2022/01/24 00:00:54;;;;;;;5.50;4.85;;;6.10;99.90;;;;;;2130570;67;20203;-77
2022/01/24 00:03:36;;;;;;;6.05;5.43;;;6.10;99.90;;;;;;2125158;67;20342;-76
2022/01/24 00:06:11;;;;;;;6.55;5.30;;;6.10;99.90;;;;;;2123639;67;20226;-76
2022/01/24 00:08:42;;;;;;;6.78;4.80;;;6.10;99.90;;;;;;2125737;67;20301;-77
2022/01/24 00:11:18;;;;;;;6.50;5.82;;;6.10;99.90;;;;;;2132238;67;20212;-76
2022/01/24 00:28:42;;;;;;;6.35;5.20;;;6.00;99.90;;;;;;2161463;66;20684;-76
2022/01/24 00:31:21;;;;;;;7.15;5.30;;;6.00;99.90;;;;;;2172300;65;20218;-77
2022/01/24 00:33:58;;;;;;;7.32;5.55;;;6.00;99.90;;;;;;2188062;65;20164;-77
2022/01/24 00:36:49;;;;;;;6.05;4.97;;;6.50;99.90;;;;;;2197996;65;20342;-76
2022/01/24 00:39:27;;;;;;;6.93;5.88;;;6.00;99.90;;;;;;2198561;65;21578;-77
2022/01/24 00:42:29;;;;;;;5.88;5.28;;;6.00;99.90;;;;;;2199114;65;20169;-77
2022/01/24 00:45:27;;;;;;;6.43;4.82;;;6.00;99.90;;;;;;2198852;65;20282;-76
2022/01/24 00:54:03;;;;;;;6.03;4.93;;;5.90;99.90;;;;;;2233058;64;20623;-77
2022/01/24 00:56:54;;;;;;;7.60;4.97;;;5.90;99.90;;;;;;2229343;64;20277;-77
2022/01/24 00:59:32;;;;;;;6.60;5.00;;;5.90;99.90;;;;;;2229564;64;20882;-77
2022/01/24 01:02:13;;;;;;;5.97;5.00;;;5.90;99.90;;;;;;2228558;64;20831;-77
2022/01/24 01:08:01;;;;;;;6.55;4.95;;;5.80;99.90;;;;;;2213599;64;20791;-77
2022/01/24 01:19:47;;;;;;;6.38;5.05;;;5.80;99.90;;;;;;2176789;65;20253;-76
2022/01/24 01:22:32;;;;;;;5.05;4.25;;;5.70;99.90;;;;;;2169917;65;20272;-77
2022/01/24 01:25:15;;;;;;;5.32;4.50;;;5.70;99.90;;;;;;2154693;66;20248;-77
2022/01/24 01:27:57;;;;;;;7.82;4.93;;;5.70;99.90;;;;;;2152007;66;20192;-76
2022/01/24 01:30:45;;;;;;;6.22;4.88;;;5.70;99.90;;;;;;2148261;66;20179;-76
2022/01/24 01:33:54;;;;;;;4.97;4.22;;;5.70;99.90;;;;;;2146837;66;20315;-77
2022/01/24 01:39:50;;;;;;;7.28;4.53;;;5.80;99.90;;;;;;2143768;67;20743;-76
2022/01/24 01:57:25;;;;;;;6.80;4.47;;;5.60;99.90;;;;;;2125015;67;20388;-76
2022/01/24 02:00:13;;;;;;;5.50;4.50;;;5.70;99.90;;;;;;2103221;67;20333;-76
2022/01/24 02:02:55;;;;;;;6.40;4.28;;;5.60;99.90;;;;;;2101027;68;20336;-76
2022/01/24 02:05:37;;;;;;;5.88;3.90;;;5.60;99.90;;;;;;2112209;67;20256;-76
2022/01/24 02:08:23;;;;;;;6.07;4.00;;;5.60;99.90;;;;;;2117717;67;20717;-76
2022/01/24 02:11:05;;;;;;;5.95;4.47;;;5.60;99.90;;;;;;2116559;67;20244;-76
2022/01/24 02:13:47;;;;;;;5.75;4.30;;;5.60;99.90;;;;;;2114337;67;20220;-76
2022/01/24 02:24:53;;;;;;;8.38;5.50;;;5.60;99.90;;;;;;2117983;67;20202;-75
2022/01/24 02:27:46;;;;;;;7.10;4.18;;;5.50;99.90;;;;;;2125881;67;20172;-76
2022/01/24 02:33:21;;;;;;;5.28;4.30;;;5.60;99.90;;;;;;2125545;67;20604;-77
2022/01/24 02:36:03;;;;;;;5.15;4.18;;;5.60;99.90;;;;;;2123415;67;20289;-75
2022/01/24 02:53:38;;;;;;;5.28;4.20;;;5.50;99.90;;;;;;2116273;67;20214;-76
2022/01/24 02:56:20;;;;;;;7.50;4.60;;;5.90;99.90;;;;;;2106688;68;20223;-78
2022/01/24 02:59:04;;;;;;;6.25;4.45;;;5.50;99.90;;;;;;2115879;67;20670;-75
2022/01/24 03:01:49;;;;;;;6.43;4.70;;;5.90;99.90;;;;;;2111057;67;20699;-77
2022/01/24 03:04:32;;;;;;;6.22;4.70;;;5.50;99.90;;;;;;2104693;67;20752;-77
2022/01/24 03:07:14;;;;;;;6.47;4.50;;;5.50;99.90;;;;;;2126201;67;20286;-77
2022/01/24 03:09:56;;;;;;;6.32;5.15;;;5.50;99.90;;;;;;2140149;66;20243;-77
2022/01/24 03:12:47;;;;;;;5.35;4.20;;;5.50;99.90;;;;;;2143367;66;20467;-77
2022/01/24 03:15:29;;;;;;;7.10;4.50;;;5.50;99.90;;;;;;2118383;67;20717;-76
2022/01/24 03:18:11;;;;;;;5.95;4.60;;;5.50;99.90;;;;;;2125009;67;20586;-76
2022/01/24 03:20:53;;;;;;;6.40;4.20;;;5.50;99.90;;;;;;2122425;67;20235;-77
2022/01/24 03:23:35;;;;;;;6.57;5.03;;;5.50;99.90;;;;;;2132839;67;20481;-75
2022/01/24 03:26:18;;;;;;;7.32;5.03;;;5.50;99.90;;;;;;2119446;67;20312;-76
2022/01/24 03:28:59;;;;;;;5.53;4.28;;;5.50;99.90;;;;;;2118923;67;20337;-75
2022/01/24 03:31:42;;;;;;;5.63;4.20;;;5.50;99.90;;;;;;2117942;67;20728;-76
2022/01/24 03:34:25;;;;;;;7.90;4.75;;;5.50;99.90;;;;;;2111713;67;20205;-76
2022/01/24 03:37:10;;;;;;;5.43;4.75;;;5.50;99.90;;;;;;2117670;67;20288;-76
2022/01/24 03:39:52;;;;;;;8.30;5.30;;;4.60;99.90;;;;;;2131012;67;20199;-77
2022/01/24 03:42:34;;;;;;;6.63;5.07;;;5.50;99.90;;;;;;2143320;66;20437;-77
2022/01/24 03:45:23;;;;;;;7.47;5.45;;;5.50;99.90;;;;;;2153334;66;20288;-78
2022/01/24 03:48:12;;;;;;;6.85;5.28;;;5.50;99.90;;;;;;2134456;66;20275;-76
2022/01/24 03:51:08;;;;;;;7.03;5.00;;;5.50;99.90;;;;;;2142634;66;20756;-76
2022/01/24 03:53:53;;;;;;;7.33;5.70;;;5.40;99.90;;;;;;2141216;66;20331;-76
2022/01/24 03:56:35;;;;;;;6.55;5.00;;;5.40;99.90;;;;;;2144729;66;20404;-76
2022/01/24 03:59:17;;;;;;;8.07;5.82;;;5.40;99.90;;;;;;2161223;66;20814;-78
2022/01/24 04:01:59;;;;;;;8.57;6.30;;;5.40;99.90;;;;;;2151516;66;20718;-77
2022/01/24 04:04:41;;;;;;;7.30;5.30;;;5.90;99.90;;;;;;2155425;66;20319;-76
2022/01/24 04:07:23;;;;;;;8.63;6.10;;;5.90;99.90;;;;;;2163680;66;20259;-77
2022/01/24 04:10:07;;;;;;;8.63;6.68;;;5.80;99.90;;;;;;2152924;66;20269;-77
2022/01/24 04:12:51;;;;;;;8.18;5.93;;;5.40;99.90;;;;;;2161625;66;20852;-77
2022/01/24 04:21:35;;;;;;;10.60;7.40;;;5.30;99.90;;;;;;2143598;66;20171;-77
2022/01/24 04:24:22;;;;;;;7.30;6.18;;;5.40;99.90;;;;;;2127884;67;20195;-76
2022/01/24 04:27:06;;;;;;;9.40;5.72;;;5.30;99.90;;;;;;2134318;67;20359;-76
2022/01/24 04:29:50;;;;;;;9.85;6.90;;;5.30;99.90;;;;;;2141168;66;20187;-77
2022/01/24 04:32:32;;;;;;;7.85;7.05;;;5.30;99.90;;;;;;1909391;67;15088703;-77
2022/01/24 04:35:18;;;;;;;11.35;7.80;;;5.30;99.90;;;;;;2128370;67;20711;-75
2022/01/24 04:38:02;;;;;;;8.77;6.85;;;5.30;99.90;;;;;;2122360;67;20177;-76
2022/01/24 04:40:48;;;;;;;9.80;6.78;;;5.30;99.90;;;;;;2122576;67;20287;-77
2022/01/24 04:43:52;;;;;;;8.50;6.97;;;5.30;99.90;;;;;;2122027;67;20220;-76
2022/01/24 04:55:05;;;;;;;10.20;7.85;;;5.20;99.90;;;;;;2130377;67;20344;-75
2022/01/24 04:57:48;;;;;;;9.43;7.88;;;5.30;99.90;;;;;;2134177;67;20195;-75
2022/01/24 05:00:31;;;;;;;10.70;7.68;;;5.20;99.90;;;;;;2148490;66;20256;-75
2022/01/24 05:03:16;;;;;;;9.10;7.47;;;5.20;99.90;;;;;;2156525;66;20221;-77
2022/01/24 05:05:59;;;;;;;9.35;7.32;;;5.30;99.90;;;;;;2164289;66;20584;-75
2022/01/24 05:08:42;;;;;;;10.15;7.60;;;5.30;99.90;;;;;;2154191;66;20345;-76
2022/01/24 05:23:43;;;;;;;12.93;8.82;;;5.30;99.90;;;;;;2113409;67;20336;-76
2022/01/24 05:26:25;;;;;;;12.55;8.65;;;5.30;99.90;;;;;;2117790;67;20273;-76
2022/01/24 05:29:08;;;;;;;12.90;8.75;;;5.40;99.90;;;;;;2123113;67;20448;-75
2022/01/24 05:31:52;;;;;;;13.15;8.88;;;5.30;99.90;;;;;;2117648;67;20366;-78
2022/01/24 05:34:35;;;;;;;12.60;9.10;;;5.20;99.90;;;;;;2120652;67;20176;-76
2022/01/24 05:37:18;;;;;;;14.48;8.55;;;5.20;99.90;;;;;;2127735;67;20181;-77
2022/01/24 05:40:02;;;;;;;13.00;9.02;;;5.20;99.90;;;;;;2125937;67;20279;-76
2022/01/24 05:42:46;;;;;;;14.27;9.68;;;5.20;99.90;;;;;;2114432;67;20197;-76
2022/01/24 05:45:30;;;;;;;;;;;5.20;99.90;;;;;;2106202;67;20296;-77
2022/01/24 05:48:12;;;;;;;12.77;8.82;;;5.40;99.90;;;;;;2108747;67;20231;-76
2022/01/24 05:50:54;;;;;;;15.25;9.75;;;5.20;99.90;;;;;;2105252;67;20378;-80
2022/01/24 05:53:36;;;;;;;14.15;10.05;;;5.20;99.90;;;;;;2104361;68;20793;-77
2022/01/24 05:56:18;;;;;;;13.75;10.27;;;5.20;99.90;;;;;;2111657;67;20607;-78
2022/01/24 05:59:00;;;;;;;13.55;9.90;;;5.20;99.90;;;;;;2111163;67;20613;-77
2022/01/24 06:01:42;;;;;;;17.42;11.60;;;5.20;99.90;;;;;;2116447;67;20247;-76
2022/01/24 06:04:24;;;;;;;15.32;9.88;;;5.20;99.90;;;;;;2119180;67;20213;-77
2022/01/24 06:07:06;;;;;;;15.45;10.98;;;5.20;99.90;;;;;;2125979;67;20329;-76
2022/01/24 06:09:52;;;;;;;14.88;10.95;;;5.20;99.90;;;;;;2119949;67;20306;-76
2022/01/24 06:12:38;;;;;;;15.02;10.63;;;5.20;99.90;;;;;;2122953;67;20306;-76
2022/01/24 06:15:22;;;;;;;14.68;10.20;;;5.20;99.90;;;;;;2124500;67;20244;-77
2022/01/24 06:18:04;;;;;;;16.38;11.02;;;5.20;99.90;;;;;;2124976;67;20221;-77
2022/01/24 06:20:46;;;;;;;13.45;10.82;;;5.20;99.90;;;;;;2124999;67;20250;-76
2022/01/24 06:23:28;;;;;;;14.77;10.73;;;5.20;99.90;;;;;;2118288;67;20721;-76
2022/01/24 06:26:10;;;;;;;15.35;11.15;;;5.20;99.90;;;;;;2110754;67;20603;-77
2022/01/24 06:28:51;;;;;;;16.70;10.82;;;5.20;99.90;;;;;;2124904;67;20223;-76
2022/01/24 06:31:33;;;;;;;16.63;10.45;;;5.20;99.90;;;;;;2131354;67;21117;-77
2022/01/24 06:34:17;;;;;;;15.43;10.60;;;5.20;99.90;;;;;;2127008;67;20212;-76
2022/01/24 06:37:02;;;;;;;14.73;10.40;;;5.20;99.90;;;;;;2125119;67;20595;-77
2022/01/24 06:39:44;;;;;;;14.68;10.63;;;5.20;99.90;;;;;;2117599;67;20256;-77
2022/01/24 06:42:26;;;;;;;13.77;10.18;;;5.20;99.90;;;;;;2133877;67;20355;-77
2022/01/24 06:45:14;;;;;;;14.38;9.82;;;5.20;99.90;;;;;;2128825;67;20360;-77
2022/01/24 06:47:55;;;;;;;14.90;10.18;;;5.20;99.90;;;;;;2136198;66;20236;-76
2022/01/24 06:50:43;;;;;;;15.02;10.27;;;5.10;99.90;;;;;;2140099;66;20875;-76
2022/01/24 06:53:25;;;;;;;14.98;10.52;;;5.20;99.90;;;;;;2121074;67;20346;-76
2022/01/24 06:56:10;;;;;;;17.15;11.27;;;5.20;99.90;;;;;;2125856;67;20299;-76
2022/01/24 06:58:52;;;;;;;17.02;10.43;;;5.20;99.90;;;;;;2133605;67;20187;-77
2022/01/24 07:01:34;;;;;;;17.08;10.30;;;5.20;99.90;;;;;;2141549;66;20285;-77
2022/01/24 07:04:18;;;;;;;12.60;9.98;;;5.20;99.90;;;;;;2140010;66;20332;-77
2022/01/24 07:07:01;;;;;;;13.57;10.20;;;5.20;99.90;;;;;;2125890;67;20383;-77
2022/01/24 07:09:44;;;;;;;14.77;10.45;;;5.20;99.90;;;;;;2122311;67;20227;-77
2022/01/24 07:12:28;;;;;;;14.80;9.85;;;5.20;99.90;;;;;;2122749;67;20230;-75
2022/01/24 07:15:17;;;;;;;16.25;9.50;;;5.20;99.90;;;;;;2132631;67;20221;-76
2022/01/24 07:21:21;;;;;;;15.13;10.23;;;5.20;99.90;;;;;;2126725;67;20188;-76
2022/01/24 07:24:05;;;;;;;14.15;10.52;;;5.20;99.90;;;;;;2138139;67;20313;-74
2022/01/24 07:26:46;;;;;;;14.85;9.77;;;5.20;99.90;;;;;;2125777;67;20719;-75
2022/01/24 07:29:28;;;;;;;13.55;8.93;;;5.20;99.90;;;;;;2118837;67;20789;-78
2022/01/24 07:32:13;;;;;;;11.98;8.85;;;5.50;99.90;;;;;;2105451;67;20637;-77
2022/01/24 07:34:58;;;;;;;13.43;9.35;;;5.10;99.90;;;;;;2111479;67;20256;-77
2022/01/24 07:37:40;;;;;;;12.25;9.55;;;5.20;99.90;;;;;;2118441;67;20757;-77
2022/01/24 07:40:22;;;;;;;13.20;9.35;;;5.20;99.90;;;;;;2111557;67;20289;-77
2022/01/24 07:43:13;;;;;;;14.48;9.52;;;5.10;99.90;;;;;;2112401;67;20373;-77
2022/01/24 07:45:54;;;;;;;14.57;9.85;;;5.10;99.90;;;;;;2118521;67;20267;-77
2022/01/24 07:48:37;;;;;;;14.70;10.13;;;5.10;99.90;;;;;;2118773;67;20265;-78
2022/01/24 07:51:22;;;;;;;12.13;9.13;;;5.10;99.90;;;;;;2124314;67;20594;-77
2022/01/24 07:54:04;;;;;;;11.85;9.10;;;5.10;99.90;;;;;;2119095;67;20404;-78
2022/01/24 07:56:46;;;;;;;16.00;10.23;;;5.10;99.90;;;;;;2120013;67;20260;-77
2022/01/24 07:59:28;;;;;;;14.18;8.95;;;5.20;99.90;;;;;;2118827;67;20273;-77
2022/01/24 08:02:10;;;;;;;12.65;9.45;;;5.30;99.90;;;;;;2123176;67;20418;-80
2022/01/24 08:04:52;;;;;;;13.82;9.35;;;5.20;99.90;;;;;;2126076;67;20258;-80
2022/01/24 08:07:36;;;;;;;14.00;9.43;;;5.20;99.90;;;;;;2111499;67;20223;-80
2022/01/24 08:10:20;;;;;;;16.98;12.75;;;5.20;99.90;;;;;;2116367;67;20254;-81
2022/01/24 08:13:04;;;;;;;17.80;12.32;;;5.20;99.90;;;;;;2105151;68;20307;-80
2022/01/24 08:15:50;;;;;;;17.88;13.13;;;5.20;99.90;;;;;;2097708;68;20212;-80
2022/01/24 08:18:34;;;;;;;14.32;10.40;;;5.50;99.90;;;;;;2098054;68;20320;-80
2022/01/24 08:21:16;;;;;;;11.57;9.05;;;5.20;99.90;;;;;;2085571;68;20313;-77
2022/01/24 08:24:00;;;;;;;13.43;9.10;;;5.30;99.90;;;;;;2096897;68;20587;-78
2022/01/24 08:26:43;;;;;;;11.95;9.05;;;5.30;99.90;;;;;;2112657;67;20362;-78
2022/01/24 08:29:29;;;;;;;12.80;9.32;;;5.30;99.90;;;;;;2111433;67;20253;-77
2022/01/24 08:32:14;;;;;;;12.98;9.68;;;5.30;99.90;;;;;;2118620;67;20169;-79
2022/01/24 08:34:58;;;;;;;11.90;9.15;;;5.40;99.90;;;;;;2118092;67;20353;-80
2022/01/24 08:37:41;;;;;;;31.20;12.85;;;5.40;99.90;;;;;;2112435;67;20335;-81
2022/01/24 08:40:28;;;;;;;15.13;10.15;;;5.40;99.90;;;;;;2123008;67;20317;-79
2022/01/24 08:43:22;;;;;;;17.77;10.82;;;5.40;99.90;;;;;;2109554;67;20303;-82
2022/01/24 08:46:08;;;;;;;15.40;10.52;;;5.40;99.90;;;;;;2113033;67;20262;-80
2022/01/24 08:48:55;;;;;;;16.15;10.50;;;5.40;99.90;;;;;;2127839;66;20241;-79
2022/01/24 08:51:36;;;;;;;17.08;12.32;;;5.50;99.90;;;;;;2125513;67;20653;-81
2022/01/24 08:54:20;;;;;;;16.92;11.32;;;5.50;99.90;;;;;;2128381;67;20834;-84
2022/01/24 08:57:04;;;;;;;17.35;11.20;;;5.50;99.90;;;;;;2129997;67;20747;-81
2022/01/24 08:59:46;;;;;;;13.70;10.27;;;5.50;99.90;;;;;;2121665;67;20184;-76
2022/01/24 09:02:29;;;;;;;13.80;9.82;;;5.50;99.90;;;;;;2125026;67;20394;-76
2022/01/24 09:05:12;;;;;;;15.35;10.95;;;5.50;99.90;;;;;;2117818;67;20172;-75
2022/01/24 09:07:56;;;;;;;14.20;11.38;;;5.50;99.90;;;;;;2116992;67;20292;-76
2022/01/24 09:10:40;;;;;;;16.38;10.77;;;5.50;99.90;;;;;;2110538;67;20317;-76
2022/01/24 09:13:23;;;;;;;14.95;10.75;;;5.60;99.90;;;;;;2117486;67;20173;-76
2022/01/24 09:16:09;;;;;;;;;;;5.60;99.90;;;;;;2119052;67;20703;-77
2022/01/24 09:18:55;;;;;;;17.52;10.75;;;5.60;99.90;;;;;;2124728;67;20222;-76
2022/01/24 09:21:40;;;;;;;15.35;10.48;;;5.60;99.90;;;;;;2110042;67;20254;-80
2022/01/24 09:24:23;;;;;;;14.65;10.15;;;5.60;99.90;;;;;;2105603;67;20202;-79
2022/01/24 09:27:08;;;;;;;15.02;10.68;;;5.60;99.90;;;;;;2112156;67;20217;-80
2022/01/24 09:29:51;;;;;;;17.63;11.52;;;5.70;99.90;;;;;;2120439;67;20212;-80
2022/01/24 09:32:33;;;;;;;18.17;12.98;;;5.70;99.90;;;;;;2118132;67;20277;-84
2022/01/24 09:35:16;;;;;;;18.88;12.55;;;5.70;99.90;;;;;;2125704;67;20188;-80
2022/01/24 09:37:58;;;;;;;18.92;13.10;;;5.70;99.90;;;;;;2122472;67;20357;-79
2022/01/24 09:40:41;;;;;;;22.17;13.80;;;5.70;99.90;;;;;;2105367;67;20949;-77
2022/01/24 09:43:24;;;;;;;19.83;14.18;;;5.70;99.90;;;;;;2099742;67;20745;-79
2022/01/24 09:46:09;;;;;;;17.25;13.35;;;5.70;99.90;;;;;;2111448;67;20929;-81
2022/01/24 09:48:53;;;;;;;21.10;13.30;;;5.70;99.90;;;;;;2095893;68;20671;-79
2022/01/24 09:51:38;;;;;;;20.23;14.63;;;5.80;99.90;;;;;;2124344;67;20731;-79
2022/01/24 09:54:22;;;;;;;20.10;13.87;;;5.80;99.90;;;;;;2106292;67;20233;-78
2022/01/24 09:57:06;;;;;;;23.83;15.55;;;5.80;99.90;;;;;;2118089;67;20478;-78
2022/01/24 09:59:49;;;;;;;26.30;16.60;;;5.80;99.90;;;;;;2110531;67;20417;-80
2022/01/24 10:02:31;;;;;;;22.20;14.95;;;5.90;99.90;;;;;;2111950;67;20296;-80
2022/01/24 10:05:30;;;;;;;19.67;14.43;;;5.90;99.90;;;;;;2126621;67;20778;-79
2022/01/24 10:08:18;;;;;;;20.67;14.82;;;5.90;99.90;;;;;;2119043;67;20733;-79
2022/01/24 10:11:04;;;;;;;19.88;13.57;;;6.00;99.90;;;;;;2105625;67;20165;-80
2022/01/24 10:16:48;;;;;;;26.35;17.15;;;6.00;99.90;;;;;;2110794;67;20170;-76
2022/01/24 10:19:29;;;;;;;25.85;16.50;;;6.00;99.90;;;;;;2112862;67;20236;-79
2022/01/24 10:22:12;;;;;;;25.35;16.83;;;6.00;99.90;;;;;;2125990;67;20241;-78
2022/01/24 10:24:56;;;;;;;28.10;17.30;;;6.00;99.90;;;;;;2139022;67;20273;-78
2022/01/24 10:27:42;;;;;;;28.10;17.15;;;6.00;99.90;;;;;;2133801;67;20552;-79
2022/01/24 10:30:27;;;;;;;27.73;16.77;;;6.00;99.90;;;;;;2121791;67;20221;-78
2022/01/24 10:33:14;;;;;;;23.35;15.55;;;6.10;99.90;;;;;;2129794;67;20344;-77
2022/01/24 10:35:57;;;;;;;29.35;18.13;;;6.10;99.90;;;;;;2127908;67;20276;-78
2022/01/24 10:38:54;;;;;;;30.42;19.83;;;6.10;99.90;;;;;;2134871;67;20184;-76
2022/01/24 10:41:54;;;;;;;31.95;20.02;;;6.10;99.90;;;;;;2142678;67;20251;-79
2022/01/24 10:44:38;;;;;;;33.20;20.25;;;6.10;99.90;;;;;;2150748;66;20425;-77
2022/01/24 10:47:31;;;;;;;32.35;20.80;;;6.20;99.90;;;;;;2146118;66;20338;-79
2022/01/24 10:50:39;;;;;;;28.77;19.90;;;6.20;99.90;;;;;;2126939;67;20185;-78
2022/01/24 10:53:21;;;;;;;29.98;19.10;;;6.20;99.90;;;;;;2124449;67;20169;-77
2022/01/24 10:56:35;;;;;;;29.90;18.95;;;6.20;99.90;;;;;;2132004;67;20197;-76
2022/01/24 10:59:21;;;;;;;33.38;21.48;;;6.20;99.90;;;;;;2140032;67;20183;-77
2022/01/24 11:02:04;;;;;;;31.80;19.60;;;6.40;99.90;;;;;;2139115;66;20275;-80
2022/01/24 11:04:47;;;;;;;29.80;19.08;;;6.20;99.90;;;;;;2138517;67;20327;-78
2022/01/24 11:07:31;;;;;;;;;;;6.20;99.90;;;;;;2141743;67;20776;-79
2022/01/24 11:10:15;;;;;;;33.33;20.83;;;6.20;99.90;;;;;;2130256;67;20224;-79
2022/01/24 11:13:00;;;;;;;27.50;20.13;;;6.20;99.90;;;;;;2141654;66;20183;-82
2022/01/24 11:15:46;;;;;;;34.08;20.23;;;6.10;99.90;;;;;;2145894;66;20264;-82
2022/01/24 11:18:28;;;;;;;34.97;20.02;;;6.10;99.90;;;;;;2140051;67;20272;-82
2022/01/24 11:21:13;;;;;;;33.95;21.58;;;6.10;99.90;;;;;;2127258;67;20392;-82
2022/01/24 11:23:54;;;;;;;29.63;18.60;;;6.10;99.90;;;;;;2124307;67;20197;-81
2022/01/24 11:26:31;;;;;;;29.55;19.67;;;6.20;99.90;;;;;;2127259;67;20239;-79
2022/01/24 11:29:08;;;;;;;33.70;21.10;;;6.20;99.90;;;;;;2126952;67;20187;-80
2022/01/24 11:32:10;;;;;;;32.08;19.13;;;6.20;99.90;;;;;;2126972;67;20184;-80
2022/01/24 11:34:52;;;;;;;30.20;19.17;;;6.20;99.90;;;;;;2129743;67;20165;-80
2022/01/24 11:37:47;;;;;;;29.55;19.27;;;6.20;99.90;;;;;;2140542;66;20354;-80
2022/01/24 11:40:29;;;;;;;35.35;21.60;;;6.20;99.90;;;;;;2149722;66;20205;-80
2022/01/24 11:43:24;;;;;;;32.45;21.33;;;6.20;99.90;;;;;;2161596;66;20262;-81
2022/01/24 11:46:24;;;;;;;37.22;22.58;;;6.20;99.90;;;;;;2156197;66;20653;-81
2022/01/24 11:49:12;;;;;;;35.30;22.17;;;6.20;99.90;;;;;;2155478;66;20209;-81
2022/01/24 11:52:05;;;;;;;33.85;21.75;;;6.10;99.90;;;;;;2155121;66;20173;-79
2022/01/24 11:57:58;;;;;;;35.33;22.35;;;6.20;99.90;;;;;;2169690;66;20184;-80
2022/01/24 12:00:40;;;;;;;37.15;22.27;;;6.20;99.90;;;;;;2169333;65;20188;-80
2022/01/24 12:03:40;;;;;;;36.10;21.90;;;6.20;99.90;;;;;;2169621;66;20188;-80
2022/01/24 12:06:20;;;;;;;30.73;19.48;;;6.20;99.90;;;;;;2169433;66;20230;-80
2022/01/24 12:09:06;;;;;;;32.88;20.08;;;6.20;99.90;;;;;;2169612;66;20168;-79
2022/01/24 12:11:43;;;;;;;31.52;19.27;;;6.20;99.90;;;;;;2192611;64;20172;-78
2022/01/24 12:14:37;;;;;;;35.45;20.73;;;6.20;99.90;;;;;;2215173;64;20321;-79
2022/01/24 12:17:33;;;;;;;32.47;21.42;;;6.30;99.90;;;;;;2238420;64;20186;-80
2022/01/24 12:20:30;;;;;;;30.98;19.65;;;6.30;99.90;;;;;;2240928;63;20293;-78
2022/01/24 12:23:20;;;;;;;30.77;19.38;;;6.20;99.90;;;;;;2226125;64;20274;-78
2022/01/24 12:26:12;;;;;;;30.23;18.77;;;6.20;99.90;;;;;;2207679;64;20180;-77
2022/01/24 12:29:02;;;;;;;31.58;18.67;;;6.20;99.90;;;;;;2199558;65;20262;-78
2022/01/24 12:31:58;;;;;;;28.33;18.63;;;6.20;99.90;;;;;;2194833;65;20673;-76
2022/01/24 12:34:42;;;;;;;31.02;19.48;;;6.20;99.90;;;;;;2171184;66;20360;-78
2022/01/24 12:37:30;;;;;;;35.83;20.27;;;6.20;99.90;;;;;;2168853;66;20728;-77
2022/01/24 12:40:27;;;;;;;30.60;18.20;;;6.20;99.90;;;;;;2164062;66;20253;-77
2022/01/24 12:43:18;;;;;;;24.88;17.73;;;6.30;99.90;;;;;;2163820;66;20319;-78
2022/01/24 12:46:19;;;;;;;27.35;17.73;;;6.30;99.90;;;;;;2159406;66;20407;-77
2022/01/24 12:49:05;;;;;;;30.48;18.98;;;6.30;99.90;;;;;;2157142;66;20247;-78
2022/01/24 12:51:49;;;;;;;26.40;17.70;;;6.20;99.90;;;;;;2142421;66;20732;-78
2022/01/24 12:54:33;;;;;;;28.65;18.27;;;6.30;99.90;;;;;;2135267;67;20852;-78
2022/01/24 12:57:18;;;;;;;26.88;17.60;;;6.30;99.90;;;;;;2127167;67;20265;-76
2022/01/24 13:00:13;;;;;;;29.65;19.08;;;6.20;99.90;;;;;;2118836;67;20256;-76
2022/01/24 13:02:55;;;;;;;32.33;19.83;;;6.20;99.90;;;;;;2108423;67;20788;-77
2022/01/24 13:05:39;;;;;;;28.95;18.77;;;6.20;99.90;;;;;;2102525;68;20174;-76
2022/01/24 13:08:21;;;;;;;32.53;21.13;;;6.20;99.90;;;;;;2097266;68;20207;-76
2022/01/24 13:11:03;;;;;;;32.40;19.65;;;6.20;99.90;;;;;;2104247;68;20817;-76
2022/01/24 13:14:27;;;;;;;36.70;22.17;;;6.40;99.90;;;;;;2097746;68;20708;-78
2022/01/24 13:23:29;;;;;;;28.98;19.63;;;6.10;99.90;;;;;;2098931;68;20278;-78
2022/01/24 13:26:13;;;;;;;35.25;19.92;;;6.10;99.90;;;;;;2096570;68;20191;-78
2022/01/24 13:29:04;;;;;;;32.15;19.63;;;6.10;99.90;;;;;;2098663;68;20765;-79
2022/01/24 13:31:51;;;;;;;29.77;19.63;;;6.60;99.90;;;;;;2078655;68;20321;-80
2022/01/24 13:34:33;;;;;;;34.08;20.95;;;6.00;99.90;;;;;;2076185;68;20431;-76
2022/01/24 13:37:39;;;;;;;34.47;20.75;;;5.90;99.90;;;;;;2084920;68;20403;-80
2022/01/24 13:40:36;;;;;;;28.27;18.67;;;6.00;99.90;;;;;;2089542;68;20355;-80
2022/01/24 13:43:31;;;;;;;31.30;19.13;;;6.00;99.90;;;;;;2093530;68;20675;-76
2022/01/24 13:46:22;;;;;;;26.95;18.40;;;6.00;99.90;;;;;;2091785;68;20226;-79
2022/01/24 13:49:08;;;;;;;30.73;19.50;;;6.00;99.90;;;;;;2097937;68;20182;-80
2022/01/24 13:51:52;;;;;;;;;;;6.00;99.90;;;;;;2100100;67;20330;-78
2022/01/24 13:54:37;;;;;;;28.42;17.67;;;6.00;99.90;;;;;;2086232;68;20092;-80
2022/01/24 13:57:20;;;;;;;30.42;20.17;;;5.90;99.90;;;;;;2098249;68;20311;-80
2022/01/24 14:00:09;;;;;;;31.38;20.08;;;6.80;99.90;;;;;;2112725;67;20259;-77
2022/01/24 14:03:03;;;;;;;34.13;19.65;;;5.90;99.90;;;;;;2110388;67;20195;-77
2022/01/24 14:05:46;;;;;;;32.90;20.25;;;6.10;99.90;;;;;;2120698;67;20346;-76
2022/01/24 14:08:28;;;;;;;31.75;20.52;;;5.90;99.90;;;;;;2132108;67;20263;-75
2022/01/24 14:11:14;;;;;;;26.80;18.85;;;5.90;99.90;;;;;;2125060;67;20243;-77
2022/01/24 14:14:08;;;;;;;27.50;18.58;;;5.80;99.90;;;;;;2126102;67;20726;-76
2022/01/24 14:17:07;;;;;;;29.40;19.50;;;5.80;99.90;;;;;;2131921;67;20247;-78
2022/01/24 14:20:02;;;;;;;29.27;19.65;;;5.80;99.90;;;;;;2121880;67;20224;-76
2022/01/24 14:22:51;;;;;;;29.33;17.75;;;5.80;99.90;;;;;;2128003;67;20296;-79
2022/01/24 14:25:35;;;;;;;33.00;20.75;;;5.80;99.90;;;;;;2135060;66;20251;-77
2022/01/24 14:28:22;;;;;;;30.83;19.05;;;5.80;99.90;;;;;;2137354;67;20323;-77
2022/01/24 14:31:11;;;;;;;31.80;19.55;;;5.80;99.90;;;;;;2132117;67;20242;-77
2022/01/24 14:34:04;;;;;;;30.83;19.17;;;5.70;99.90;;;;;;2122741;67;20183;-76
2022/01/24 14:37:05;;;;;;;31.58;20.05;;;5.80;99.90;;;;;;2129320;67;20403;-78
2022/01/24 14:39:49;;;;;;;29.10;17.45;;;5.80;99.90;;;;;;2125341;67;20246;-76
2022/01/24 14:42:45;;;;;;;28.67;19.45;;;5.80;99.90;;;;;;2129162;67;20191;-76
2022/01/24 14:45:27;;;;;;;29.38;18.10;;;5.80;99.90;;;;;;2136831;67;20166;-78
2022/01/24 14:48:09;;;;;;;28.17;17.75;;;5.70;99.90;;;;;;2132137;67;20250;-77
2022/01/24 14:50:52;;;;;;;25.48;17.88;;;5.70;99.90;;;;;;2128098;67;20345;-77
2022/01/24 14:53:37;;;;;;;27.17;17.50;;;5.70;99.90;;;;;;2140668;66;20303;-76
2022/01/24 14:56:18;;;;;;;31.38;19.10;;;5.70;99.90;;;;;;2147287;66;20743;-78
2022/01/24 14:59:04;;;;;;;30.63;17.75;;;5.70;99.90;;;;;;2137145;67;20742;-77
2022/01/24 15:01:50;;;;;;;30.52;18.95;;;5.70;99.90;;;;;;2125663;67;20430;-76
2022/01/24 15:04:32;;;;;;;29.73;17.83;;;6.50;99.90;;;;;;2139557;67;20206;-76
2022/01/24 15:07:14;;;;;;;26.65;17.13;;;5.80;99.90;;;;;;2146903;66;20275;-77
2022/01/24 15:09:56;;;;;;;28.77;17.10;;;5.80;99.90;;;;;;2133473;67;20444;-76
2022/01/24 15:12:44;;;;;;;27.77;16.85;;;5.70;99.90;;;;;;2141429;67;20349;-78
2022/01/24 15:15:27;;;;;;;28.48;17.33;;;5.70;99.90;;;;;;2119566;67;20173;-78
2022/01/24 15:27:15;;;;;;;28.55;16.70;;;5.70;99.90;;;;;;2149916;66;20175;-77
2022/01/24 15:29:57;;;;;;;27.50;16.17;;;5.70;99.90;;;;;;2129823;67;20646;-77
2022/01/24 15:32:40;;;;;;;27.92;17.13;;;5.70;99.90;;;;;;2132891;67;21053;-78
2022/01/24 15:35:25;;;;;;;26.83;16.50;;;5.70;99.90;;;;;;2139791;66;20294;-78
2022/01/24 15:38:07;;;;;;;29.75;18.98;;;5.70;99.90;;;;;;2145219;67;20237;-78
2022/01/24 15:40:51;;;;;;;26.57;16.63;;;5.70;99.90;;;;;;2151104;66;20225;-79
2022/01/24 15:43:52;;;;;;;24.80;17.27;;;5.60;99.90;;;;;;2151271;66;20173;-77
2022/01/24 15:47:00;;;;;;;29.55;17.70;;;5.60;99.90;;;;;;2164814;66;20316;-77
2022/01/24 15:49:36;;;;;;;27.15;16.60;;;6.20;99.90;;;;;;2163373;66;20235;-77
2022/01/24 15:52:18;;;;;;;27.00;17.05;;;6.50;99.90;;;;;;2156939;66;21042;-78
2022/01/24 15:55:06;;;;;;;32.17;18.98;;;6.10;99.90;;;;;;2155060;66;20178;-78
2022/01/24 15:57:48;;;;;;;27.58;17.27;;;5.60;99.90;;;;;;2122010;67;20281;-76
2022/01/24 16:00:38;;;;;;;33.38;18.88;;;5.10;99.90;;;;;;2106383;67;20302;-78
2022/01/24 16:03:20;;;;;;;33.28;19.20;;;6.50;99.90;;;;;;2110269;67;20233;-76
2022/01/24 16:06:02;;;;;;;30.20;19.00;;;5.60;99.90;;;;;;2116223;67;20484;-76
2022/01/24 16:08:45;;;;;;;31.80;18.77;;;5.50;99.90;;;;;;2119532;67;20261;-77
2022/01/24 16:11:28;;;;;;;31.20;19.25;;;5.50;99.90;;;;;;2111260;67;20185;-78
2022/01/24 16:14:13;;;;;;;32.83;20.00;;;5.40;99.90;;;;;;2123363;67;20271;-80
2022/01/24 16:17:00;;;;;;;29.75;19.23;;;5.50;99.90;;;;;;2122093;67;20334;-77
2022/01/24 16:19:50;;;;;;;34.40;20.13;;;5.60;99.90;;;;;;2115027;67;20181;-77
2022/01/24 16:22:47;;;;;;;30.65;19.48;;;5.50;99.90;;;;;;2128557;67;20298;-76
2022/01/24 16:25:34;;;;;;;30.05;17.98;;;5.50;99.90;;;;;;2124927;67;20819;-77